createdAt,value
2023-03-16T00:02:24.451Z,26.77
2023-03-16T00:04:51.397Z,27.58
2023-03-16T00:07:18.225Z,31.80
2023-03-16T00:09:45.010Z,30.15
2023-03-16T00:12:16.060Z,29.02
2023-03-16T00:14:44.582Z,26.47
2023-03-16T00:17:19.559Z,30.73
2023-03-16T00:19:55.174Z,26.48
2023-03-16T00:22:24.980Z,28.20
2023-03-16T00:24:55.543Z,29.77
2023-03-16T00:27:25.112Z,35.42
2023-03-16T00:29:56.668Z,33.40
2023-03-16T00:32:29.282Z,30.85
2023-03-16T00:34:56.444Z,32.03
2023-03-16T00:37:24.627Z,30.63
2023-03-16T00:39:52.317Z,32.95
2023-03-16T00:42:19.936Z,30.73
2023-03-16T00:44:46.974Z,38.88
2023-03-16T00:47:17.256Z,31.90
2023-03-16T00:49:44.377Z,31.33
2023-03-16T00:52:14.809Z,31.90
2023-03-16T00:54:46.926Z,32.40
2023-03-16T00:59:42.225Z,33.42
2023-03-16T01:02:09.876Z,31.48
2023-03-16T01:04:37.347Z,30.33
2023-03-16T01:07:05.467Z,33.47
2023-03-16T01:09:36.974Z,35.75
2023-03-16T01:12:09.657Z,32.90
2023-03-16T01:14:37.449Z,33.80
2023-03-16T01:17:08.461Z,31.20
2023-03-16T01:19:37.343Z,33.65
2023-03-16T01:22:05.744Z,29.58
2023-03-16T01:24:32.910Z,31.02
2023-03-16T01:26:59.714Z,30.75
2023-03-16T01:29:26.574Z,32.83
2023-03-16T01:31:53.456Z,32.28
2023-03-16T01:34:20.320Z,31.25
2023-03-16T01:36:48.421Z,27.48
2023-03-16T01:39:15.908Z,27.13
2023-03-16T01:41:44.442Z,32.97
2023-03-16T01:44:16.683Z,30.13
2023-03-16T01:46:44.448Z,28.35
2023-03-16T01:49:17.178Z,26.35
2023-03-16T01:51:52.030Z,31.35
2023-03-16T01:54:32.922Z,27.30
2023-03-16T01:57:18.316Z,25.63
2023-03-16T01:59:57.910Z,26.20
2023-03-16T02:02:31.216Z,27.38
2023-03-16T02:05:09.712Z,24.80
2023-03-16T02:07:42.455Z,27.88
2023-03-16T02:10:12.009Z,24.52
2023-03-16T02:12:39.497Z,29.65
2023-03-16T02:15:07.144Z,29.90
2023-03-16T02:17:53.861Z,27.50
2023-03-16T02:20:42.594Z,26.83
2023-03-16T02:23:18.505Z,25.77
2023-03-16T02:25:45.203Z,27.42
2023-03-16T02:28:26.983Z,26.77
2023-03-16T02:30:54.078Z,27.50
2023-03-16T02:33:21.889Z,26.70
2023-03-16T02:35:48.691Z,26.83
2023-03-16T02:38:15.499Z,28.33
2023-03-16T02:40:44.072Z,24.85
2023-03-16T02:43:22.334Z,28.02
2023-03-16T02:45:57.057Z,27.30
2023-03-16T02:48:30.071Z,25.77
2023-03-16T02:50:56.805Z,27.05
2023-03-16T02:53:23.641Z,26.95
2023-03-16T02:55:50.689Z,28.65
2023-03-16T02:58:18.275Z,26.92
2023-03-16T03:00:45.870Z,25.65
2023-03-16T03:03:12.775Z,28.05
2023-03-16T03:05:40.087Z,26.38
2023-03-16T03:08:07.160Z,27.48
2023-03-16T03:10:33.896Z,23.75
2023-03-16T03:13:00.849Z,24.63
2023-03-16T03:15:27.612Z,30.88
2023-03-16T03:17:54.336Z,25.42
2023-03-16T03:20:21.726Z,24.15
2023-03-16T03:22:50.016Z,25.42
2023-03-16T03:25:18.652Z,26.27
2023-03-16T03:27:47.357Z,27.42
2023-03-16T03:30:17.330Z,29.80
2023-03-16T03:32:44.717Z,25.70
2023-03-16T03:35:14.032Z,28.38
2023-03-16T03:37:42.482Z,27.20
2023-03-16T03:40:11.982Z,25.17
2023-03-16T03:42:39.967Z,27.35
2023-03-16T03:45:08.049Z,26.80
2023-03-16T03:47:35.059Z,26.33
2023-03-16T03:50:01.880Z,25.88
2023-03-16T03:52:29.105Z,24.33
2023-03-16T03:54:55.964Z,38.03
2023-03-16T03:57:22.801Z,25.88
2023-03-16T03:59:49.589Z,30.67
2023-03-16T04:02:16.698Z,28.58
2023-03-16T04:04:44.245Z,27.60
2023-03-16T04:07:12.005Z,23.80
2023-03-16T04:09:38.837Z,25.65
2023-03-16T04:12:06.333Z,26.38
2023-03-16T04:14:33.171Z,26.95
2023-03-16T04:17:00.035Z,25.17
2023-03-16T04:19:26.832Z,27.27
2023-03-16T04:21:53.819Z,26.08
2023-03-16T04:24:22.386Z,31.65
2023-03-16T04:26:49.512Z,26.42
2023-03-16T04:29:19.664Z,24.98
2023-03-16T04:31:46.670Z,25.05
2023-03-16T04:34:13.838Z,27.80
2023-03-16T04:36:42.171Z,26.17
2023-03-16T04:39:10.547Z,32.90
2023-03-16T04:41:37.369Z,30.60
2023-03-16T04:44:04.849Z,30.73
2023-03-16T04:46:32.183Z,29.23
2023-03-16T04:48:59.395Z,31.10
2023-03-16T04:51:26.973Z,29.08
2023-03-16T04:53:53.877Z,30.05
2023-03-16T04:56:21.078Z,30.73
2023-03-16T04:58:49.746Z,30.80
2023-03-16T05:01:17.313Z,31.95
2023-03-16T05:03:44.640Z,27.42
2023-03-16T05:06:12.466Z,28.63
2023-03-16T05:08:39.189Z,27.38
2023-03-16T05:11:06.166Z,30.65
2023-03-16T05:13:33.222Z,29.02
2023-03-16T05:16:00.348Z,24.92
2023-03-16T05:18:27.314Z,28.75
2023-03-16T05:20:56.196Z,25.98
2023-03-16T05:23:23.907Z,26.58
2023-03-16T05:25:51.159Z,26.75
2023-03-16T05:28:18.063Z,26.88
2023-03-16T05:30:47.856Z,34.45
2023-03-16T05:33:14.771Z,28.58
2023-03-16T05:35:41.611Z,28.60
2023-03-16T05:38:10.000Z,25.73
2023-03-16T05:40:37.398Z,26.02
2023-03-16T05:43:04.523Z,24.25
2023-03-16T05:45:31.424Z,25.35
2023-03-16T05:47:58.273Z,24.95
2023-03-16T05:50:26.606Z,25.75
2023-03-16T05:52:54.246Z,29.92
2023-03-16T05:55:21.073Z,25.75
2023-03-16T05:57:47.811Z,27.63
2023-03-16T06:00:16.356Z,27.67
2023-03-16T06:02:45.280Z,25.83
2023-03-16T06:05:12.096Z,27.45
2023-03-16T06:07:38.917Z,24.98
2023-03-16T06:10:06.864Z,24.23
2023-03-16T06:12:34.641Z,25.83
2023-03-16T06:15:02.857Z,26.52
2023-03-16T06:17:30.168Z,24.38
2023-03-16T06:19:56.965Z,27.48
2023-03-16T06:22:25.131Z,26.30
2023-03-16T06:24:52.231Z,27.40
2023-03-16T06:27:20.460Z,25.98
2023-03-16T06:29:47.820Z,28.77
2023-03-16T06:32:15.140Z,28.80
2023-03-16T06:34:41.937Z,26.55
2023-03-16T06:37:09.009Z,28.63
2023-03-16T06:39:36.006Z,31.65
2023-03-16T06:42:04.586Z,28.88
2023-03-16T06:44:31.578Z,29.27
2023-03-16T06:46:58.798Z,29.83
2023-03-16T06:49:25.669Z,32.95
2023-03-16T06:51:52.804Z,39.15
2023-03-16T06:54:19.833Z,36.17
2023-03-16T06:56:46.679Z,35.38
2023-03-16T06:59:13.810Z,32.45
2023-03-16T07:01:40.738Z,34.75
2023-03-16T07:04:08.261Z,37.22
2023-03-16T07:06:35.168Z,41.78
2023-03-16T07:09:02.173Z,40.20
2023-03-16T07:11:29.088Z,45.20
2023-03-16T07:13:55.839Z,41.03
2023-03-16T07:16:22.646Z,48.15
2023-03-16T07:18:49.617Z,45.22
2023-03-16T07:21:16.575Z,44.33
2023-03-16T07:23:43.432Z,44.60
2023-03-16T07:26:12.106Z,38.40
2023-03-16T07:28:42.145Z,47.45
2023-03-16T07:31:09.621Z,48.05
2023-03-16T07:33:36.756Z,40.70
2023-03-16T07:36:09.332Z,48.67
2023-03-16T07:38:36.310Z,51.53
2023-03-16T07:41:03.070Z,48.72
2023-03-16T07:43:30.022Z,48.53
2023-03-16T07:45:57.063Z,56.70
2023-03-16T07:48:24.035Z,51.38
2023-03-16T07:50:51.173Z,50.05
2023-03-16T07:53:18.304Z,52.22
2023-03-16T07:55:45.727Z,49.70
2023-03-16T07:58:13.470Z,54.67
2023-03-16T08:00:42.471Z,57.28
2023-03-16T08:03:09.695Z,52.17
2023-03-16T08:05:36.748Z,53.92
2023-03-16T08:08:03.602Z,60.80
2023-03-16T08:10:31.447Z,58.97
2023-03-16T08:12:58.664Z,60.45
2023-03-16T08:15:25.656Z,42.97
2023-03-16T08:17:52.663Z,49.97
2023-03-16T08:20:20.075Z,55.35
2023-03-16T08:22:47.078Z,54.28
2023-03-16T08:25:14.873Z,49.22
2023-03-16T08:27:43.288Z,55.28
2023-03-16T08:30:12.616Z,51.97
2023-03-16T08:32:41.019Z,58.58
2023-03-16T08:35:13.578Z,66.03
2023-03-16T08:37:41.561Z,59.75
2023-03-16T08:40:19.527Z,58.95
2023-03-16T08:42:46.445Z,66.05
2023-03-16T08:45:14.358Z,53.42
2023-03-16T08:47:42.694Z,45.70
2023-03-16T08:50:13.344Z,43.03
2023-03-16T08:52:40.846Z,50.53
2023-03-16T08:55:10.369Z,52.72
2023-03-16T08:57:39.402Z,54.65
2023-03-16T09:00:14.104Z,53.78
2023-03-16T09:02:44.699Z,56.35
2023-03-16T09:05:14.752Z,58.25
2023-03-16T09:07:42.401Z,41.83
2023-03-16T09:10:13.361Z,39.72
2023-03-16T09:12:40.984Z,51.65
2023-03-16T09:15:10.175Z,53.53
2023-03-16T09:17:37.260Z,64.95
2023-03-16T09:20:21.121Z,58.67
2023-03-16T09:22:49.129Z,60.30
2023-03-16T09:25:16.054Z,67.85
2023-03-16T09:27:43.136Z,69.50
2023-03-16T09:30:11.096Z,67.75
2023-03-16T09:32:38.257Z,59.80
2023-03-16T09:35:06.563Z,69.38
2023-03-16T09:37:44.795Z,57.38
2023-03-16T09:40:26.658Z,69.25
2023-03-16T09:43:14.447Z,68.25
2023-03-16T09:46:15.491Z,72.40
2023-03-16T09:48:42.536Z,64.72
2023-03-16T09:51:35.367Z,60.53
2023-03-16T09:54:04.851Z,66.43
2023-03-16T09:56:37.989Z,62.83
2023-03-16T09:59:13.496Z,56.60
2023-03-16T10:02:14.523Z,74.30
2023-03-16T10:04:54.408Z,78.03
2023-03-16T10:07:57.145Z,62.70
2023-03-16T10:10:45.143Z,55.33
2023-03-16T10:13:17.782Z,68.35
2023-03-16T10:15:48.984Z,74.95
2023-03-16T10:18:26.454Z,72.07
2023-03-16T10:20:55.415Z,63.50
2023-03-16T10:23:24.500Z,51.78
2023-03-16T10:25:53.566Z,57.45
2023-03-16T10:28:28.546Z,59.38
2023-03-16T10:31:00.156Z,65.30
2023-03-16T10:33:31.562Z,60.30
2023-03-16T10:36:10.662Z,61.60
2023-03-16T10:38:40.453Z,59.88
2023-03-16T10:41:21.594Z,65.95
2023-03-16T10:43:59.933Z,50.60
2023-03-16T10:46:28.859Z,48.03
2023-03-16T10:49:01.432Z,57.47
2023-03-16T10:51:34.943Z,44.63
2023-03-16T10:54:10.946Z,51.78
2023-03-16T10:56:38.437Z,47.13
2023-03-16T10:59:38.265Z,52.70
2023-03-16T11:02:22.753Z,58.50
2023-03-16T11:04:50.585Z,52.97
2023-03-16T11:07:19.427Z,54.15
2023-03-16T11:09:47.856Z,61.40
2023-03-16T11:12:41.506Z,48.03
2023-03-16T11:15:25.150Z,53.60
2023-03-16T11:17:53.666Z,50.63
2023-03-16T11:20:28.570Z,51.05
2023-03-16T11:22:56.379Z,49.58
2023-03-16T11:25:37.407Z,41.58
2023-03-16T11:28:17.035Z,43.67
2023-03-16T11:31:01.492Z,45.10
2023-03-16T11:33:31.169Z,43.00
2023-03-16T11:36:19.317Z,45.60
2023-03-16T11:39:11.119Z,39.97
2023-03-16T11:42:04.053Z,38.67
2023-03-16T11:44:56.605Z,39.40
2023-03-16T11:48:05.869Z,47.15
2023-03-16T11:50:44.295Z,39.20
2023-03-16T11:53:37.140Z,41.08
2023-03-16T11:56:08.055Z,41.45
2023-03-16T11:58:57.071Z,39.33
2023-03-16T12:01:43.025Z,32.97
2023-03-16T12:04:28.525Z,36.45
2023-03-16T12:07:21.946Z,43.70
2023-03-16T12:10:06.045Z,35.50
2023-03-16T12:12:53.608Z,37.92
2023-03-16T12:15:21.467Z,49.63
2023-03-16T12:17:51.479Z,44.80
2023-03-16T12:20:24.869Z,35.30
2023-03-16T12:22:54.608Z,37.88
2023-03-16T12:25:25.722Z,45.35
2023-03-16T12:27:55.664Z,37.90
2023-03-16T12:30:44.203Z,38.70
2023-03-16T12:33:32.600Z,43.90
2023-03-16T12:36:40.089Z,36.20
2023-03-16T12:39:40.683Z,43.22
2023-03-16T12:42:33.580Z,38.65
2023-03-16T12:45:18.162Z,39.05
2023-03-16T12:48:17.860Z,44.30
2023-03-16T12:50:53.283Z,41.33
2023-03-16T12:53:53.320Z,45.83
2023-03-16T12:56:30.139Z,44.22
2023-03-16T12:59:00.267Z,40.80
2023-03-16T13:01:31.673Z,40.50
2023-03-16T13:04:15.266Z,43.47
2023-03-16T13:07:08.000Z,43.53
2023-03-16T13:09:42.288Z,41.78
2023-03-16T13:12:10.555Z,44.92
2023-03-16T13:14:44.290Z,44.65
2023-03-16T13:17:17.443Z,49.05
2023-03-16T13:19:47.868Z,48.17
2023-03-16T13:22:28.649Z,50.45
2023-03-16T13:25:11.036Z,50.53
2023-03-16T13:27:39.662Z,49.72
2023-03-16T13:30:18.321Z,53.08
2023-03-16T13:32:46.123Z,48.58
2023-03-16T13:35:15.514Z,50.70
2023-03-16T13:37:43.992Z,53.70
2023-03-16T13:40:23.828Z,53.60
2023-03-16T13:42:53.077Z,47.58
2023-03-16T13:45:28.152Z,47.88
2023-03-16T13:47:55.561Z,51.60
2023-03-16T13:50:22.312Z,50.30
2023-03-16T13:53:04.555Z,52.67
2023-03-16T13:55:36.977Z,53.63
2023-03-16T13:58:04.894Z,59.72
2023-03-16T14:00:35.209Z,51.58
2023-03-16T14:03:14.377Z,56.15
2023-03-16T14:05:41.434Z,58.78
2023-03-16T14:08:20.687Z,52.72
2023-03-16T14:10:48.522Z,53.22
2023-03-16T14:13:36.206Z,56.33
2023-03-16T14:16:17.761Z,55.30
2023-03-16T14:18:48.326Z,55.97
2023-03-16T14:21:19.834Z,53.58
2023-03-16T14:23:56.822Z,57.38
2023-03-16T14:26:24.100Z,52.38
2023-03-16T14:29:14.814Z,54.67
2023-03-16T14:31:41.783Z,53.75
2023-03-16T14:34:27.089Z,54.88
2023-03-16T14:36:54.142Z,56.63
2023-03-16T14:39:26.967Z,56.00
2023-03-16T14:41:53.744Z,55.83
2023-03-16T14:44:27.119Z,54.17
2023-03-16T14:46:59.374Z,64.10
2023-03-16T14:49:28.009Z,55.17
2023-03-16T14:52:00.509Z,50.90
2023-03-16T14:54:28.678Z,53.95
2023-03-16T14:57:03.937Z,55.05
2023-03-16T14:59:30.727Z,54.20
2023-03-16T15:01:59.294Z,57.47
2023-03-16T15:04:31.313Z,52.38
2023-03-16T15:09:43.882Z,53.72
2023-03-16T15:12:19.622Z,56.92
2023-03-16T15:15:05.556Z,55.75
2023-03-16T15:17:33.179Z,53.65
2023-03-16T15:20:00.073Z,54.55
2023-03-16T15:22:32.722Z,52.75
2023-03-16T15:25:03.755Z,55.50
2023-03-16T15:27:36.496Z,55.87
2023-03-16T15:30:03.534Z,57.97
2023-03-16T15:32:30.945Z,49.95
2023-03-16T15:34:57.852Z,46.08
2023-03-16T15:37:27.674Z,38.92
2023-03-16T15:39:54.693Z,33.58
2023-03-16T15:42:21.455Z,38.60
2023-03-16T15:44:48.425Z,32.63
2023-03-16T15:47:15.620Z,38.05
2023-03-16T15:49:47.703Z,33.03
2023-03-16T15:52:32.687Z,32.20
2023-03-16T15:55:04.560Z,34.97
2023-03-16T15:57:32.069Z,29.55
2023-03-16T15:59:59.450Z,27.02
2023-03-16T16:02:28.456Z,30.05
2023-03-16T16:04:55.473Z,25.13
2023-03-16T16:07:22.329Z,27.30
2023-03-16T16:09:49.567Z,27.30
2023-03-16T16:12:17.933Z,25.50
2023-03-16T16:14:44.849Z,26.77
2023-03-16T16:17:21.089Z,27.35
2023-03-16T16:19:49.884Z,26.08
2023-03-16T16:22:16.698Z,26.27
2023-03-16T16:24:43.913Z,25.70
2023-03-16T16:27:12.443Z,24.75
2023-03-16T16:29:39.743Z,25.73
2023-03-16T16:32:24.913Z,23.95
2023-03-16T16:35:03.411Z,26.13
2023-03-16T16:37:30.976Z,24.55
2023-03-16T16:39:57.799Z,23.27
2023-03-16T16:42:24.888Z,24.00
2023-03-16T16:44:53.628Z,24.15
2023-03-16T16:47:24.296Z,26.30
2023-03-16T16:49:52.041Z,25.52
2023-03-16T16:52:19.946Z,26.92
2023-03-16T16:54:46.925Z,25.80
2023-03-16T16:57:20.821Z,27.90
2023-03-16T16:59:48.797Z,27.60
2023-03-16T17:02:44.676Z,29.85
2023-03-16T17:05:26.743Z,28.35
2023-03-16T17:07:54.165Z,23.15
2023-03-16T17:10:27.212Z,27.65
2023-03-16T17:12:57.000Z,30.90
2023-03-16T17:15:28.867Z,29.08
2023-03-16T17:20:40.214Z,30.80
2023-03-16T17:23:29.843Z,30.95
2023-03-16T17:25:59.295Z,32.00
2023-03-16T17:28:29.762Z,33.90
2023-03-16T17:30:57.154Z,31.35
2023-03-16T17:33:26.191Z,28.95
2023-03-16T17:35:53.148Z,28.95
2023-03-16T17:38:22.919Z,32.50
2023-03-16T17:40:51.264Z,31.45
2023-03-16T17:43:20.970Z,31.30
2023-03-16T17:45:51.316Z,30.90
2023-03-16T17:48:21.480Z,31.55
2023-03-16T17:50:48.666Z,32.05
2023-03-16T17:53:17.740Z,32.75
2023-03-16T17:55:46.797Z,32.00
2023-03-16T17:58:28.194Z,30.63
2023-03-16T18:00:55.977Z,35.28
2023-03-16T18:03:25.765Z,35.97
2023-03-16T18:05:52.654Z,30.67
2023-03-16T18:08:25.982Z,32.00
2023-03-16T18:10:56.487Z,34.45
2023-03-16T18:13:36.265Z,33.08
2023-03-16T18:16:05.884Z,32.42
2023-03-16T18:18:37.221Z,31.38
2023-03-16T18:21:04.863Z,33.80
2023-03-16T18:23:34.643Z,29.95
2023-03-16T18:26:07.061Z,35.15
2023-03-16T18:28:35.032Z,31.52
2023-03-16T18:31:05.108Z,25.88
2023-03-16T18:33:39.270Z,31.63
2023-03-16T18:36:12.944Z,31.63
2023-03-16T18:38:43.617Z,33.42
2023-03-16T18:41:18.435Z,32.08
2023-03-16T18:43:46.600Z,33.13
2023-03-16T18:46:25.747Z,26.83
2023-03-16T18:48:55.497Z,27.33
2023-03-16T18:51:22.982Z,29.15
2023-03-16T18:53:50.491Z,31.77
2023-03-16T18:56:25.685Z,31.75
2023-03-16T18:58:53.703Z,27.98
2023-03-16T19:01:32.240Z,32.13
2023-03-16T19:04:02.223Z,29.35
2023-03-16T19:06:32.409Z,28.23
2023-03-16T19:09:17.726Z,30.77
2023-03-16T19:11:45.589Z,30.23
2023-03-16T19:14:34.169Z,27.42
2023-03-16T19:17:01.273Z,30.02
2023-03-16T19:19:29.444Z,31.77
2023-03-16T19:22:01.826Z,31.13
2023-03-16T19:24:42.291Z,28.00
2023-03-16T19:27:26.868Z,26.05
2023-03-16T19:29:54.891Z,23.95
2023-03-16T19:32:22.118Z,23.98
2023-03-16T19:34:49.366Z,22.83
2023-03-16T19:37:19.218Z,17.52
2023-03-16T19:39:46.175Z,20.20
2023-03-16T19:42:20.568Z,18.08
2023-03-16T19:44:50.084Z,18.40
2023-03-16T19:47:31.885Z,18.92
2023-03-16T19:50:02.169Z,18.35
2023-03-16T19:52:32.726Z,18.23
2023-03-16T19:54:59.553Z,16.50
2023-03-16T19:57:26.716Z,18.00
2023-03-16T19:59:56.516Z,14.20
2023-03-16T20:02:38.629Z,17.83
2023-03-16T20:05:06.633Z,15.80
2023-03-16T20:07:38.096Z,11.38
2023-03-16T20:10:06.750Z,11.40
2023-03-16T20:12:35.790Z,12.15
2023-03-16T20:15:03.258Z,10.25
2023-03-16T20:17:33.036Z,14.55
2023-03-16T20:19:59.757Z,13.30
2023-03-16T20:22:28.600Z,14.23
2023-03-16T20:24:58.125Z,14.77
2023-03-16T20:27:25.528Z,12.25
2023-03-16T20:29:52.335Z,12.77
2023-03-16T20:32:24.825Z,15.13
2023-03-16T20:34:52.599Z,15.32
2023-03-16T20:37:30.849Z,11.98
2023-03-16T20:39:59.129Z,14.73
2023-03-16T20:42:34.493Z,13.75
2023-03-16T20:45:01.718Z,12.75
2023-03-16T20:47:30.199Z,14.18
2023-03-16T20:50:00.275Z,12.93
2023-03-16T20:52:30.809Z,13.75
2023-03-16T20:54:58.247Z,11.05
2023-03-16T20:57:27.518Z,12.23
2023-03-16T20:59:55.527Z,12.52
2023-03-16T21:02:28.765Z,14.23
2023-03-16T21:04:57.926Z,17.75
2023-03-16T21:07:24.809Z,16.25
2023-03-16T21:09:52.072Z,15.07
2023-03-16T21:12:40.713Z,12.85
2023-03-16T21:15:19.507Z,15.88
2023-03-16T21:17:47.394Z,16.17
2023-03-16T21:20:19.553Z,13.77
2023-03-16T21:22:46.966Z,15.15
2023-03-16T21:25:23.451Z,12.63
2023-03-16T21:27:50.814Z,16.50
2023-03-16T21:30:24.606Z,17.67
2023-03-16T21:32:52.377Z,14.70
2023-03-16T21:35:19.622Z,16.70
2023-03-16T21:37:49.316Z,14.40
2023-03-16T21:40:21.658Z,18.48
2023-03-16T21:42:48.680Z,15.18
2023-03-16T21:45:16.029Z,18.08
2023-03-16T21:47:43.731Z,16.10
2023-03-16T21:50:23.443Z,18.15
2023-03-16T21:52:51.246Z,15.32
2023-03-16T21:55:24.414Z,19.27
2023-03-16T21:57:51.741Z,15.57
2023-03-16T22:00:36.516Z,15.90
2023-03-16T22:03:04.362Z,14.68
2023-03-16T22:05:38.312Z,14.88
2023-03-16T22:08:16.154Z,17.40
2023-03-16T22:10:43.155Z,15.02
2023-03-16T22:13:12.044Z,17.42
2023-03-16T22:15:41.440Z,15.80
2023-03-16T22:18:22.519Z,15.10
2023-03-16T22:20:49.275Z,15.23
2023-03-16T22:23:31.872Z,16.90
2023-03-16T22:25:58.932Z,12.75
2023-03-16T22:28:26.427Z,14.60
2023-03-16T22:30:54.779Z,18.80
2023-03-16T22:33:28.236Z,16.77
2023-03-16T22:36:00.344Z,15.15
2023-03-16T22:38:27.233Z,15.35
2023-03-16T22:40:54.210Z,15.07
2023-03-16T22:43:30.224Z,19.80
2023-03-16T22:45:57.357Z,15.45
2023-03-16T22:48:27.376Z,14.27
2023-03-16T22:50:56.650Z,16.63
2023-03-16T22:53:37.163Z,14.88
2023-03-16T22:56:05.554Z,15.25
2023-03-16T22:58:39.478Z,12.65
2023-03-16T23:01:21.636Z,13.60
2023-03-16T23:03:51.374Z,16.50
2023-03-16T23:06:26.996Z,14.98
2023-03-16T23:08:54.822Z,12.93
2023-03-16T23:11:28.524Z,18.40
2023-03-16T23:13:55.950Z,15.05
2023-03-16T23:16:29.230Z,13.57
2023-03-16T23:18:56.344Z,12.35
2023-03-16T23:21:24.873Z,17.77
2023-03-16T23:24:03.204Z,10.30
2023-03-16T23:26:31.733Z,14.63
2023-03-16T23:28:58.835Z,14.02
2023-03-16T23:31:27.263Z,15.02
2023-03-16T23:33:54.211Z,13.65
2023-03-16T23:36:23.043Z,13.55
2023-03-16T23:38:50.688Z,13.20
2023-03-16T23:41:23.567Z,14.25
2023-03-16T23:43:51.131Z,12.18
2023-03-16T23:46:20.909Z,14.18
2023-03-16T23:48:49.239Z,17.33
2023-03-16T23:51:36.090Z,14.27
2023-03-16T23:54:14.236Z,14.88
2023-03-16T23:56:40.967Z,14.55
2023-03-16T23:59:07.753Z,16.60
